createdAt,value
2019-05-06T00:01:47.913Z,1.90
2019-05-06T00:04:15.205Z,2.25
2019-05-06T00:06:43.973Z,2.00
2019-05-06T00:09:11.111Z,1.70
2019-05-06T00:14:35.188Z,2.08
2019-05-06T00:17:03.887Z,1.90
2019-05-06T00:19:31.244Z,1.80
2019-05-06T00:21:58.277Z,2.05
2019-05-06T00:24:25.321Z,2.20
2019-05-06T00:26:57.214Z,1.92
2019-05-06T00:29:21.655Z,2.50
2019-05-06T00:31:48.927Z,2.02
2019-05-06T00:34:16.206Z,2.40
2019-05-06T00:36:43.760Z,1.90
2019-05-06T00:39:10.847Z,2.12
2019-05-06T00:41:38.149Z,1.87
2019-05-06T00:44:05.428Z,2.12
2019-05-06T00:46:34.474Z,2.00
2019-05-06T00:49:03.687Z,2.22
2019-05-06T00:51:30.477Z,2.50
2019-05-06T00:53:57.755Z,2.15
2019-05-06T00:56:24.786Z,4.17
2019-05-06T00:58:52.073Z,6.50
2019-05-06T01:01:27.016Z,2.70
2019-05-06T01:03:48.326Z,3.08
2019-05-06T01:06:15.369Z,2.25
2019-05-06T01:08:44.078Z,2.10
2019-05-06T01:11:11.415Z,2.45
2019-05-06T01:13:38.698Z,2.12
2019-05-06T01:16:05.989Z,2.52
2019-05-06T01:18:34.065Z,2.42
2019-05-06T01:21:03.716Z,2.47
2019-05-06T01:23:30.272Z,2.33
2019-05-06T01:25:57.564Z,2.40
2019-05-06T01:28:24.845Z,2.22
2019-05-06T01:30:53.553Z,2.20
2019-05-06T01:33:20.869Z,2.25
2019-05-06T01:35:48.176Z,2.65
2019-05-06T01:38:15.459Z,2.25
2019-05-06T01:40:44.000Z,2.50
2019-05-06T01:43:11.319Z,2.45
2019-05-06T01:45:38.429Z,2.30
2019-05-06T01:48:05.711Z,2.47
2019-05-06T01:50:34.467Z,2.37
2019-05-06T01:53:01.555Z,2.40
2019-05-06T01:55:28.589Z,2.35
2019-05-06T01:57:55.873Z,2.35
2019-05-06T02:00:23.700Z,2.47
2019-05-06T02:02:50.850Z,1.87
2019-05-06T02:05:18.129Z,2.30
2019-05-06T02:07:45.158Z,2.25
2019-05-06T02:10:14.020Z,2.33
2019-05-06T02:12:41.153Z,2.10
2019-05-06T02:15:08.432Z,2.42
2019-05-06T02:17:35.468Z,2.10
2019-05-06T02:20:04.216Z,2.35
2019-05-06T02:22:34.466Z,2.40
2019-05-06T02:25:01.123Z,2.05
2019-05-06T02:27:28.583Z,2.75
2019-05-06T02:29:55.615Z,2.40
2019-05-06T02:32:30.159Z,2.20
2019-05-06T02:34:54.341Z,2.50
2019-05-06T02:37:20.353Z,2.42
2019-05-06T02:39:47.384Z,2.20
2019-05-06T02:42:14.429Z,2.62
2019-05-06T02:44:44.126Z,2.40
2019-05-06T02:47:13.580Z,2.50
2019-05-06T02:49:39.723Z,2.58
2019-05-06T02:52:06.766Z,2.50
2019-05-06T02:54:34.786Z,2.50
2019-05-06T02:57:04.246Z,2.58
2019-05-06T02:59:33.135Z,2.40
2019-05-06T03:02:03.040Z,2.50
2019-05-06T03:04:28.555Z,2.45
2019-05-06T03:06:55.819Z,2.40
2019-05-06T03:09:23.440Z,2.45
2019-05-06T03:11:53.681Z,2.45
2019-05-06T03:14:19.480Z,2.70
2019-05-06T03:16:46.818Z,2.60
2019-05-06T03:19:14.187Z,2.65
2019-05-06T03:21:44.763Z,2.85
2019-05-06T03:24:14.504Z,2.50
2019-05-06T03:26:39.513Z,2.70
2019-05-06T03:29:06.550Z,4.03
2019-05-06T03:31:36.398Z,3.35
2019-05-06T03:34:28.448Z,5.25
2019-05-06T03:36:39.443Z,8.00
2019-05-06T03:39:03.031Z,6.75
2019-05-06T03:43:59.768Z,5.62
2019-05-06T03:46:27.041Z,3.87
2019-05-06T03:48:54.445Z,3.95
2019-05-06T03:51:23.307Z,3.60
2019-05-06T03:53:54.028Z,3.98
2019-05-06T03:56:21.211Z,3.72
2019-05-06T03:58:48.962Z,4.20
2019-05-06T04:01:16.316Z,3.17
2019-05-06T04:03:48.618Z,3.62
2019-05-06T04:06:13.799Z,3.60
2019-05-06T04:08:45.803Z,3.27
2019-05-06T04:11:13.752Z,3.45
2019-05-06T04:13:43.739Z,3.10
2019-05-06T04:16:13.562Z,3.22
2019-05-06T04:18:39.802Z,2.98
2019-05-06T04:21:08.992Z,3.42
2019-05-06T04:23:35.874Z,3.37
2019-05-06T04:26:03.609Z,3.58
2019-05-06T04:28:34.221Z,3.60
2019-05-06T04:31:02.630Z,3.72
2019-05-06T04:33:29.831Z,4.40
2019-05-06T04:35:57.225Z,4.80
2019-05-06T04:38:24.578Z,4.28
2019-05-06T04:40:53.771Z,4.17
2019-05-06T04:43:23.531Z,4.60
2019-05-06T04:45:50.009Z,4.30
2019-05-06T04:48:17.313Z,4.40
2019-05-06T04:50:44.800Z,3.70
2019-05-06T04:53:13.670Z,3.62
2019-05-06T04:55:43.675Z,3.70
2019-05-06T04:58:09.911Z,3.40
2019-05-06T05:00:37.215Z,3.22
2019-05-06T05:03:05.847Z,3.17
2019-05-06T05:05:33.387Z,2.80
2019-05-06T05:08:02.490Z,7.85
2019-05-06T05:10:32.206Z,7.78
2019-05-06T05:12:58.496Z,5.83
2019-05-06T05:15:25.784Z,4.92
2019-05-06T05:17:53.092Z,4.60
2019-05-06T05:20:35.897Z,3.70
2019-05-06T05:22:49.459Z,3.55
2019-05-06T05:25:16.799Z,3.30
2019-05-06T05:27:43.827Z,3.33
2019-05-06T05:30:12.476Z,3.45
2019-05-06T05:32:39.688Z,3.52
2019-05-06T05:35:06.734Z,4.20
2019-05-06T05:37:34.088Z,4.00
2019-05-06T05:40:03.032Z,3.27
2019-05-06T05:42:30.231Z,6.92
2019-05-06T05:44:57.584Z,4.37
2019-05-06T05:47:24.623Z,5.45
2019-05-06T05:49:52.907Z,10.38
2019-05-06T05:52:22.275Z,4.15
2019-05-06T05:54:51.924Z,5.95
2019-05-06T05:57:18.401Z,5.92
2019-05-06T05:59:45.451Z,5.15
2019-05-06T06:02:13.026Z,4.60
2019-05-06T06:04:51.968Z,7.85
2019-05-06T06:07:09.107Z,6.37
2019-05-06T06:09:36.157Z,6.62
2019-05-06T06:12:03.531Z,6.10
2019-05-06T06:14:33.021Z,5.35
2019-05-06T06:16:59.306Z,7.95
2019-05-06T06:19:26.355Z,5.05
2019-05-06T06:21:53.650Z,4.67
2019-05-06T06:24:22.580Z,5.12
2019-05-06T06:26:51.960Z,4.95
2019-05-06T06:29:18.621Z,4.55
2019-05-06T06:31:45.655Z,4.40
2019-05-06T06:34:13.018Z,4.58
2019-05-06T06:36:41.884Z,4.58
2019-05-06T06:39:09.350Z,4.70
2019-05-06T06:41:36.385Z,4.78
2019-05-06T06:44:03.738Z,4.72
2019-05-06T06:46:32.332Z,5.03
2019-05-06T06:48:59.445Z,5.55
2019-05-06T06:51:26.846Z,4.80
2019-05-06T06:53:53.856Z,4.72
2019-05-06T06:56:22.060Z,5.22
2019-05-06T06:58:49.606Z,4.22
2019-05-06T07:01:16.657Z,4.97
2019-05-06T07:03:43.701Z,5.08
2019-05-06T07:06:12.700Z,5.25
2019-05-06T07:08:42.537Z,5.17
2019-05-06T07:11:08.902Z,5.20
2019-05-06T07:13:36.298Z,5.42
2019-05-06T07:16:03.337Z,4.53
2019-05-06T07:18:30.376Z,5.17
2019-05-06T07:20:57.418Z,5.28
2019-05-06T07:23:24.449Z,5.78
2019-05-06T07:25:53.721Z,5.22
2019-05-06T07:28:22.738Z,5.28
2019-05-06T07:30:49.640Z,5.17
2019-05-06T07:33:16.982Z,5.33
2019-05-06T07:35:44.086Z,5.92
2019-05-06T07:38:12.002Z,5.33
2019-05-06T07:40:39.088Z,5.85
2019-05-06T07:43:06.400Z,5.62
2019-05-06T07:45:33.776Z,5.80
2019-05-06T07:48:00.812Z,5.85
2019-05-06T07:50:27.855Z,5.92
2019-05-06T07:52:54.889Z,5.37
2019-05-06T07:55:22.943Z,5.67
2019-05-06T07:57:52.547Z,5.60
2019-05-06T08:00:19.555Z,5.95
2019-05-06T08:02:46.599Z,5.85
2019-05-06T08:05:13.956Z,7.28
2019-05-06T08:07:42.245Z,6.03
2019-05-06T08:10:09.421Z,6.80
2019-05-06T08:12:36.521Z,7.22
2019-05-06T08:15:05.186Z,7.10
2019-05-06T08:17:33.190Z,6.97
2019-05-06T08:20:02.453Z,6.95
2019-05-06T08:25:00.038Z,7.83
2019-05-06T08:27:27.398Z,7.78
2019-05-06T08:29:54.771Z,8.18
2019-05-06T08:32:22.769Z,7.20
2019-05-06T08:34:52.269Z,7.08
2019-05-06T08:37:18.936Z,7.25
2019-05-06T08:39:46.308Z,7.62
2019-05-06T08:42:13.695Z,7.65
2019-05-06T08:44:42.720Z,7.30
2019-05-06T08:47:13.121Z,7.58
2019-05-06T08:49:42.256Z,7.05
2019-05-06T08:52:09.302Z,6.95
2019-05-06T08:54:36.604Z,7.00
2019-05-06T08:57:03.647Z,6.53
2019-05-06T08:59:32.071Z,6.75
2019-05-06T09:01:59.581Z,7.00
2019-05-06T09:04:26.624Z,7.03
2019-05-06T09:06:53.747Z,7.83
2019-05-06T09:09:22.343Z,7.22
2019-05-06T09:11:49.606Z,6.85
2019-05-06T09:14:16.978Z,6.37
2019-05-06T09:16:44.460Z,6.87
2019-05-06T09:19:12.826Z,7.03
2019-05-06T09:21:45.124Z,7.47
2019-05-06T09:24:09.075Z,6.30
2019-05-06T09:26:37.185Z,6.80
2019-05-06T09:29:04.489Z,6.05
2019-05-06T09:31:32.138Z,7.15
2019-05-06T09:34:02.546Z,7.08
2019-05-06T09:36:43.590Z,6.25
2019-05-06T09:38:58.530Z,7.00
2019-05-06T09:41:27.016Z,6.78
2019-05-06T09:43:55.478Z,6.28
2019-05-06T09:46:23.199Z,6.40
2019-05-06T09:48:52.614Z,5.83
2019-05-06T09:51:18.924Z,5.58
2019-05-06T09:53:45.970Z,6.47
2019-05-06T09:56:13.383Z,5.40
2019-05-06T09:58:42.881Z,5.00
2019-05-06T10:01:09.488Z,5.83
2019-05-06T10:03:36.526Z,5.33
2019-05-06T10:06:03.563Z,5.90
2019-05-06T10:08:32.311Z,6.42
2019-05-06T10:11:00.078Z,5.47
2019-05-06T10:13:27.264Z,5.50
2019-05-06T10:15:57.520Z,5.95
2019-05-06T10:18:23.318Z,6.67
2019-05-06T10:20:50.615Z,5.90
2019-05-06T10:23:17.662Z,6.85
2019-05-06T10:25:45.017Z,6.80
2019-05-06T10:28:12.703Z,6.53
2019-05-06T10:30:40.044Z,6.28
2019-05-06T10:33:07.395Z,6.87
2019-05-06T10:35:35.896Z,6.53
2019-05-06T10:38:03.226Z,6.67
2019-05-06T10:40:32.776Z,5.75
2019-05-06T10:42:59.777Z,5.72
2019-05-06T10:45:27.135Z,5.75
2019-05-06T10:47:54.171Z,4.78
2019-05-06T10:50:22.987Z,4.92
2019-05-06T10:52:51.821Z,5.30
2019-05-06T10:55:19.325Z,5.85
2019-05-06T10:57:46.429Z,6.15
2019-05-06T11:00:13.842Z,6.10
2019-05-06T11:02:43.033Z,5.40
2019-05-06T11:05:10.481Z,5.85
2019-05-06T11:07:37.841Z,6.03
2019-05-06T11:10:04.908Z,5.58
2019-05-06T11:12:32.583Z,5.92
2019-05-06T11:14:59.944Z,5.60
2019-05-06T11:17:28.259Z,5.67
2019-05-06T11:19:55.650Z,6.25
2019-05-06T11:22:24.843Z,5.80
2019-05-06T11:24:51.947Z,5.87
2019-05-06T11:27:28.680Z,5.95
2019-05-06T11:29:47.970Z,5.42
2019-05-06T11:32:15.005Z,5.92
2019-05-06T11:34:42.201Z,6.60
2019-05-06T11:37:09.284Z,6.45
2019-05-06T11:39:36.629Z,6.28
2019-05-06T11:42:23.743Z,6.92
2019-05-06T11:44:33.083Z,6.97
2019-05-06T11:47:00.455Z,8.50
2019-05-06T11:49:27.682Z,8.45
2019-05-06T11:51:55.042Z,8.00
2019-05-06T11:54:24.348Z,8.38
2019-05-06T11:56:55.246Z,7.72
2019-05-06T11:59:19.543Z,7.75
2019-05-06T12:01:46.923Z,7.12
2019-05-06T12:04:14.294Z,6.67
2019-05-06T12:06:42.312Z,6.28
2019-05-06T12:09:13.235Z,5.92
2019-05-06T12:11:38.289Z,5.97
2019-05-06T12:14:05.566Z,5.95
2019-05-06T12:16:33.467Z,5.70
2019-05-06T12:19:02.775Z,6.08
2019-05-06T12:21:29.711Z,5.75
2019-05-06T12:23:56.741Z,5.85
2019-05-06T12:26:24.195Z,5.50
2019-05-06T12:28:53.156Z,5.60
2019-05-06T12:31:23.357Z,5.47
2019-05-06T12:33:53.474Z,6.35
2019-05-06T12:36:20.624Z,5.70
2019-05-06T12:38:48.002Z,5.55
2019-05-06T12:41:15.053Z,5.45
2019-05-06T12:43:43.016Z,5.37
2019-05-06T12:46:13.179Z,5.58
2019-05-06T12:48:39.678Z,5.70
2019-05-06T12:51:06.725Z,5.75
2019-05-06T12:53:34.078Z,6.08
2019-05-06T12:56:03.075Z,5.83
2019-05-06T12:58:30.550Z,5.47
2019-05-06T13:00:57.600Z,6.20
2019-05-06T13:03:24.946Z,5.75
2019-05-06T13:05:52.286Z,5.75
2019-05-06T13:08:21.015Z,6.03
2019-05-06T13:10:48.429Z,6.30
2019-05-06T13:13:15.493Z,6.08
2019-05-06T13:15:43.401Z,7.05
2019-05-06T13:18:10.669Z,6.42
2019-05-06T13:20:37.959Z,6.70
2019-05-06T13:23:08.922Z,6.58
2019-05-06T13:25:33.804Z,6.80
2019-05-06T13:28:00.844Z,6.12
2019-05-06T13:30:28.207Z,6.33
2019-05-06T13:32:55.571Z,7.08
2019-05-06T13:35:23.297Z,6.58
2019-05-06T13:37:52.725Z,6.30
2019-05-06T13:40:19.513Z,6.78
2019-05-06T13:42:46.827Z,6.70
2019-05-06T13:45:14.106Z,7.00
2019-05-06T13:47:41.448Z,7.37
2019-05-06T13:50:08.459Z,7.10
2019-05-06T13:52:35.571Z,6.35
2019-05-06T13:55:02.882Z,10.68
2019-05-06T13:57:32.107Z,8.10
2019-05-06T13:59:59.322Z,10.40
2019-05-06T14:02:26.371Z,6.20
2019-05-06T14:04:53.722Z,9.30
2019-05-06T14:07:23.943Z,6.55
2019-05-06T14:09:49.814Z,6.22
2019-05-06T14:12:16.876Z,6.40
2019-05-06T14:14:44.167Z,6.25
2019-05-06T14:17:12.768Z,6.25
2019-05-06T14:19:42.616Z,6.08
2019-05-06T14:22:08.979Z,6.17
2019-05-06T14:24:35.985Z,6.45
2019-05-06T14:27:03.039Z,5.92
2019-05-06T14:29:32.791Z,5.12
2019-05-06T14:31:59.085Z,6.12
2019-05-06T14:34:26.135Z,6.28
2019-05-06T14:36:53.650Z,6.12
2019-05-06T14:39:23.656Z,5.83
2019-05-06T14:41:49.422Z,6.00
2019-05-06T14:44:16.838Z,5.97
2019-05-06T14:46:43.872Z,5.72
2019-05-06T14:49:11.240Z,6.08
2019-05-06T14:51:38.413Z,6.45
2019-05-06T14:56:48.591Z,5.50
2019-05-06T14:59:16.068Z,5.85
2019-05-06T15:01:45.521Z,5.37
2019-05-06T15:04:15.691Z,5.22
2019-05-06T15:15:00.257Z,5.70
2019-05-06T15:17:27.431Z,5.30
2019-05-06T15:19:55.627Z,5.40
2019-05-06T15:22:32.077Z,4.75
2019-05-06T15:25:04.161Z,4.67
2019-05-06T15:27:39.061Z,5.92
2019-05-06T15:30:06.117Z,5.17
2019-05-06T15:32:33.323Z,4.83
2019-05-06T15:35:04.718Z,4.83
2019-05-06T15:37:33.857Z,4.53
2019-05-06T15:40:06.422Z,5.80
2019-05-06T15:45:38.978Z,4.87
2019-05-06T15:48:07.432Z,4.60
2019-05-06T15:50:35.015Z,4.72
2019-05-06T15:53:02.723Z,4.83
2019-05-06T15:55:34.277Z,4.85
2019-05-06T15:58:07.554Z,4.33
2019-05-06T16:00:34.603Z,3.75
2019-05-06T16:03:07.695Z,3.98
2019-05-06T16:05:34.966Z,4.47
2019-05-06T16:08:09.266Z,3.95
2019-05-06T16:13:15.332Z,5.37
2019-05-06T16:15:42.636Z,8.50
2019-05-06T16:18:20.365Z,17.92
2019-05-06T16:20:47.424Z,5.20
2019-05-06T16:23:23.219Z,5.65
2019-05-06T16:25:52.408Z,7.45
2019-05-06T16:28:22.444Z,7.33
2019-05-06T16:30:53.417Z,6.33
2019-05-06T16:33:22.030Z,4.90
2019-05-06T16:38:22.815Z,4.50
2019-05-06T16:40:49.599Z,3.90
2019-05-06T16:43:16.954Z,3.95
2019-05-06T16:45:45.537Z,3.80
2019-05-06T16:48:16.498Z,3.70
2019-05-06T16:50:44.959Z,3.67
2019-05-06T16:53:12.722Z,4.65
2019-05-06T16:55:40.023Z,3.92
2019-05-06T16:58:07.049Z,3.70
2019-05-06T17:00:38.379Z,3.60
2019-05-06T17:03:05.725Z,3.62
2019-05-06T17:05:33.725Z,3.47
2019-05-06T17:08:02.970Z,3.85
2019-05-06T17:10:32.183Z,3.50
2019-05-06T17:13:06.034Z,3.50
2019-05-06T17:15:33.374Z,3.52
2019-05-06T17:18:02.831Z,3.27
2019-05-06T17:20:29.463Z,3.47
2019-05-06T17:22:56.853Z,3.98
2019-05-06T17:25:28.946Z,3.25
2019-05-06T17:27:57.402Z,3.92
2019-05-06T17:30:24.859Z,3.70
2019-05-06T17:32:52.640Z,3.72
2019-05-06T17:35:23.996Z,3.75
2019-05-06T17:38:08.552Z,3.45
2019-05-06T17:40:36.929Z,3.55
2019-05-06T17:43:04.323Z,4.50
2019-05-06T17:45:34.579Z,4.15
2019-05-06T17:48:02.760Z,3.80
2019-05-06T17:50:33.260Z,4.12
2019-05-06T17:53:00.574Z,3.87
2019-05-06T17:55:28.126Z,4.10
2019-05-06T17:57:55.482Z,3.75
2019-05-06T18:00:23.145Z,3.92
2019-05-06T18:02:52.678Z,3.62
2019-05-06T18:05:19.768Z,4.00
2019-05-06T18:07:46.818Z,4.50
2019-05-06T18:10:22.155Z,5.45
2019-05-06T18:12:49.834Z,3.95
2019-05-06T18:15:17.188Z,5.87
2019-05-06T18:17:44.239Z,4.60
2019-05-06T18:20:12.735Z,4.45
2019-05-06T18:22:41.219Z,4.17
2019-05-06T18:25:08.540Z,3.60
2019-05-06T18:27:36.115Z,3.72
2019-05-06T18:30:13.462Z,4.08
2019-05-06T18:32:33.199Z,3.95
2019-05-06T18:35:02.476Z,4.08
2019-05-06T18:37:32.963Z,4.25
2019-05-06T18:39:59.445Z,4.15
2019-05-06T18:42:26.817Z,4.70
2019-05-06T18:44:53.860Z,4.60
2019-05-06T18:47:21.240Z,3.83
2019-05-06T18:49:48.273Z,4.42
2019-05-06T18:52:15.454Z,4.15
2019-05-06T18:54:43.070Z,4.00
2019-05-06T18:57:12.939Z,3.80
2019-05-06T18:59:42.078Z,3.27
2019-05-06T19:02:09.255Z,3.65
2019-05-06T19:04:36.552Z,3.95
2019-05-06T19:07:12.350Z,3.75
2019-05-06T19:09:34.538Z,3.75
2019-05-06T19:12:03.633Z,3.47
2019-05-06T19:14:32.934Z,4.17
2019-05-06T19:17:02.585Z,3.35
2019-05-06T19:19:28.679Z,3.40
2019-05-06T19:21:56.050Z,4.00
2019-05-06T19:24:23.087Z,3.50
2019-05-06T19:26:52.717Z,3.25
2019-05-06T19:29:22.969Z,3.70
2019-05-06T19:31:52.173Z,3.37
2019-05-06T19:34:18.678Z,3.35
2019-05-06T19:36:45.714Z,3.10
2019-05-06T19:39:12.879Z,3.47
2019-05-06T19:41:39.914Z,3.35
2019-05-06T19:44:07.470Z,3.30
2019-05-06T19:46:34.786Z,3.17
2019-05-06T19:49:02.391Z,3.10
2019-05-06T19:51:29.945Z,3.60
2019-05-06T19:53:57.260Z,3.58
2019-05-06T19:56:24.577Z,3.33
2019-05-06T19:58:52.566Z,3.10
2019-05-06T20:01:20.147Z,3.12
2019-05-06T20:03:49.080Z,3.15
2019-05-06T20:06:16.377Z,3.10
2019-05-06T20:08:43.422Z,3.40
2019-05-06T20:11:10.458Z,3.33
2019-05-06T20:13:37.782Z,3.15
2019-05-06T20:16:04.819Z,3.35
2019-05-06T20:18:32.844Z,2.80
2019-05-06T20:21:00.273Z,3.08
2019-05-06T20:23:27.631Z,3.30
2019-05-06T20:25:54.665Z,3.77
2019-05-06T20:28:22.788Z,3.47
2019-05-06T20:30:49.935Z,3.30
2019-05-06T20:33:17.357Z,3.37
2019-05-06T20:35:44.694Z,3.25
2019-05-06T20:38:12.356Z,4.17
2019-05-06T20:40:39.814Z,9.45
2019-05-06T20:43:17.541Z,8.13
2019-05-06T20:45:35.917Z,4.45
2019-05-06T20:48:03.317Z,3.90
2019-05-06T20:50:32.192Z,3.87
2019-05-06T20:52:59.303Z,3.50
2019-05-06T20:55:26.724Z,5.47
2019-05-06T20:57:53.763Z,5.03
2019-05-06T21:00:22.370Z,4.33
2019-05-06T21:02:49.626Z,3.40
2019-05-06T21:05:16.674Z,3.60
2019-05-06T21:07:43.714Z,3.30
2019-05-06T21:10:12.664Z,3.42
2019-05-06T21:12:42.101Z,2.87
2019-05-06T21:15:08.769Z,3.60
2019-05-06T21:17:36.186Z,3.60
2019-05-06T21:20:03.540Z,4.25
2019-05-06T21:22:32.033Z,4.20
2019-05-06T21:24:59.113Z,4.45
2019-05-06T21:27:26.436Z,4.70
2019-05-06T21:29:53.778Z,4.75
2019-05-06T21:32:22.005Z,4.10
2019-05-06T21:34:49.034Z,4.20
2019-05-06T21:37:16.354Z,4.37
2019-05-06T21:39:43.398Z,3.85
2019-05-06T21:42:12.235Z,3.87
2019-05-06T21:44:39.675Z,4.03
2019-05-06T21:47:07.002Z,3.87
2019-05-06T21:49:34.379Z,3.45
2019-05-06T21:52:02.323Z,3.77
2019-05-06T21:54:29.788Z,3.98
2019-05-06T21:56:56.823Z,4.25
2019-05-06T21:59:23.877Z,3.70
2019-05-06T22:01:52.033Z,3.62
2019-05-06T22:04:23.002Z,4.45
2019-05-06T22:06:52.251Z,4.00
2019-05-06T22:09:18.403Z,3.92
2019-05-06T22:11:45.437Z,4.40
2019-05-06T22:14:12.843Z,3.95
2019-05-06T22:16:40.179Z,4.28
2019-05-06T22:19:07.549Z,3.90
2019-05-06T22:21:34.889Z,3.90
2019-05-06T22:24:04.596Z,3.98
2019-05-06T22:26:32.483Z,4.65
2019-05-06T22:29:01.772Z,4.97
2019-05-06T22:31:28.742Z,4.97
2019-05-06T22:33:56.093Z,4.90
2019-05-06T22:36:23.654Z,4.97
2019-05-06T22:38:53.045Z,5.17
2019-05-06T22:41:19.925Z,5.20
2019-05-06T22:43:47.250Z,5.03
2019-05-06T22:46:14.610Z,5.17
2019-05-06T22:48:43.339Z,6.30
2019-05-06T22:51:12.372Z,5.53
2019-05-06T22:53:42.301Z,5.33
2019-05-06T22:56:08.764Z,5.00
2019-05-06T22:58:35.795Z,4.85
2019-05-06T23:01:04.621Z,4.72
2019-05-06T23:03:34.506Z,5.03
2019-05-06T23:06:02.553Z,5.58
2019-05-06T23:08:32.325Z,4.97
2019-05-06T23:10:59.093Z,5.33
2019-05-06T23:13:26.130Z,4.90
2019-05-06T23:15:53.494Z,5.35
2019-05-06T23:18:22.315Z,5.37
2019-05-06T23:20:49.290Z,5.12
2019-05-06T23:23:16.336Z,5.28
2019-05-06T23:25:43.707Z,5.37
2019-05-06T23:28:11.941Z,5.50
2019-05-06T23:30:38.965Z,4.97
2019-05-06T23:33:06.001Z,5.72
2019-05-06T23:35:33.053Z,5.45
2019-05-06T23:38:02.817Z,5.62
2019-05-06T23:40:29.275Z,5.28
2019-05-06T23:42:56.653Z,5.40
2019-05-06T23:45:24.025Z,5.97
2019-05-06T23:47:53.008Z,5.78
2019-05-06T23:50:20.149Z,5.15
2019-05-06T23:52:47.196Z,4.97
2019-05-06T23:55:14.552Z,5.65
2019-05-06T23:57:41.940Z,5.53
